Time;durP1;ratioP1;P1;durP2;ratioP2;P2;SDS_P1;SDS_P2;PMS_P1;PMS_P2;Temp;Humidity;BMP_temperature;BMP_pressure;BME280_temperature;BME280_humidity;BME280_pressure;Samples;Min_cycle;Max_cycle;Signal;HPM_P1;HPM_P2
2024/03/08 00:00:12;;;;;;;33.10;19.00;;;;;;;-4.81;100.00;100886.33;106049;1256;60508;-57
2024/03/08 00:02:42;;;;;;;37.30;22.10;;;;;;;-4.81;100.00;100880.39;106496;1257;60570;-56
2024/03/08 00:05:10;;;;;;;30.50;18.50;;;;;;;-4.82;100.00;100875.80;108842;1253;73938;-55
2024/03/08 00:07:38;;;;;;;31.10;18.70;;;;;;;-4.83;100.00;100880.66;107488;1258;66879;-56
2024/03/08 00:10:11;;;;;;;30.70;19.20;;;;;;;-4.87;100.00;100881.78;106019;1256;72754;-55
2024/03/08 00:12:43;;;;;;;31.80;19.80;;;;;;;-4.92;100.00;100884.92;108950;1254;60547;-56
2024/03/08 00:15:13;;;;;;;29.90;18.70;;;;;;;-4.98;100.00;100885.30;108971;1255;60171;-56
2024/03/08 00:17:41;;;;;;;35.20;20.60;;;;;;;-4.98;100.00;100879.84;108953;1253;72701;-56
2024/03/08 00:20:09;;;;;;;33.20;17.90;;;;;;;-4.98;100.00;100879.15;109052;1253;66950;-56
2024/03/08 00:22:37;;;;;;;28.50;17.60;;;;;;;-4.96;100.00;100873.98;109113;1254;72230;-57
2024/03/08 00:25:05;;;;;;;33.70;17.30;;;;;;;-4.92;100.00;100872.14;109040;1253;60628;-55
2024/03/08 00:27:33;;;;;;;30.50;18.00;;;;;;;-4.89;100.00;100874.90;108669;1253;60128;-55
2024/03/08 00:30:00;;;;;;;30.80;18.10;;;;;;;-4.85;100.00;100872.39;109129;1254;72737;-57
2024/03/08 00:32:28;;;;;;;28.50;17.50;;;;;;;-4.81;100.00;100870.06;108841;1256;65825;-56
2024/03/08 00:34:56;;;;;;;31.40;18.60;;;;;;;-4.75;100.00;100871.10;109086;1256;70798;-55
2024/03/08 00:37:23;;;;;;;27.80;17.00;;;;;;;-4.72;100.00;100866.65;108843;1255;61440;-56
2024/03/08 00:39:51;;;;;;;30.30;16.80;;;;;;;-4.69;100.00;100865.53;109199;1253;58800;-56
2024/03/08 00:42:18;;;;;;;26.30;17.30;;;;;;;-4.63;100.00;100867.11;109008;1253;73966;-56
2024/03/08 00:44:46;;;;;;;27.60;16.00;;;;;;;-4.58;100.00;100865.48;108982;1254;66028;-58
2024/03/08 00:47:14;;;;;;;29.60;18.50;;;;;;;-4.57;100.00;100863.08;109029;1255;72974;-56
2024/03/08 00:49:42;;;;;;;31.10;19.30;;;;;;;-4.55;100.00;100860.70;108792;1253;59405;-56
2024/03/08 00:52:09;;;;;;;32.80;19.90;;;;;;;-4.51;100.00;100861.52;106087;1259;60506;-56
2024/03/08 00:54:36;;;;;;;30.80;18.40;;;;;;;-4.50;100.00;100859.77;106053;1253;72638;-55
2024/03/08 00:57:04;;;;;;;34.80;19.60;;;;;;;-4.55;100.00;100859.83;105961;1255;65892;-56
2024/03/08 00:59:35;;;;;;;32.80;20.90;;;;;;;-4.61;100.00;100859.31;106195;1258;72894;-56
2024/03/08 01:02:03;;;;;;;30.80;19.60;;;;;;;-4.66;100.00;100855.80;106155;1258;60455;-56
2024/03/08 01:04:30;;;;;;;31.80;20.20;;;;;;;-4.69;100.00;100852.92;106687;1257;60878;-57
2024/03/08 01:06:58;;;;;;;34.80;20.50;;;;;;;-4.71;100.00;100851.46;106059;1253;72944;-56
2024/03/08 01:09:26;;;;;;;28.30;18.90;;;;;;;-4.72;100.00;100847.57;106727;1258;64705;-56
2024/03/08 01:11:54;;;;;;;34.50;19.70;;;;;;;-4.75;100.00;100847.12;105976;1260;73247;-55
2024/03/08 01:14:23;;;;;;;34.70;20.50;;;;;;;-4.78;100.00;100846.69;106143;1256;60692;-55
2024/03/08 01:16:50;;;;;;;35.20;20.60;;;;;;;-4.81;100.00;100847.45;106037;1259;60514;-56
2024/03/08 01:19:17;;;;;;;35.80;20.90;;;;;;;-4.86;100.00;100844.70;106062;1261;73655;-55
2024/03/08 01:21:45;;;;;;;35.80;21.80;;;;;;;-4.90;100.00;100843.50;106108;1267;66278;-55
2024/03/08 01:24:12;;;;;;;29.80;20.60;;;;;;;-4.92;100.00;100839.75;105992;1253;72649;-58
2024/03/08 01:26:39;;;;;;;33.60;20.80;;;;;;;-4.96;100.00;100841.23;106150;1254;61898;-58
2024/03/08 01:29:07;;;;;;;39.30;20.10;;;;;;;-4.98;100.00;100838.54;106179;1271;59179;-58
2024/03/08 01:31:36;;;;;;;37.30;19.50;;;;;;;-4.97;100.00;100834.20;106405;1254;72510;-57
2024/03/08 01:34:04;;;;;;;27.60;17.70;;;;;;;-4.95;100.00;100831.63;106142;1259;65141;-59
2024/03/08 01:36:32;;;;;;;32.60;18.00;;;;;;;-4.91;100.00;100831.71;106522;1256;71470;-58
2024/03/08 01:38:59;;;;;;;30.80;17.00;;;;;;;-4.87;100.00;100828.02;106004;1258;61536;-57
2024/03/08 01:41:29;;;;;;;33.30;19.50;;;;;;;-4.84;100.00;100826.88;106188;1259;61479;-56
2024/03/08 01:43:57;;;;;;;31.30;18.20;;;;;;;-4.83;100.00;100823.58;106038;1258;73254;-57
2024/03/08 01:46:24;;;;;;;31.80;19.20;;;;;;;-4.83;100.00;100819.92;106074;1268;67087;-56
2024/03/08 01:48:52;;;;;;;33.20;21.00;;;;;;;-4.85;100.00;100818.11;106035;1259;72811;-56
2024/03/08 01:51:20;;;;;;;29.60;18.70;;;;;;;-4.91;100.00;100812.67;105977;1258;60518;-58
2024/03/08 01:53:47;;;;;;;32.80;20.20;;;;;;;-4.97;100.00;100808.81;105986;1259;60260;-57
2024/03/08 01:56:15;;;;;;;29.90;19.50;;;;;;;-5.02;100.00;100805.15;106101;1256;74244;-57
2024/03/08 01:58:46;;;;;;;34.80;20.20;;;;;;;-5.04;100.00;100805.80;105953;1259;66959;-59
2024/03/08 02:01:14;;;;;;;32.10;20.40;;;;;;;-5.09;100.00;100804.40;107117;1254;71494;-58
2024/03/08 02:03:43;;;;;;;33.90;20.80;;;;;;;-5.12;100.00;100803.08;105997;1269;60621;-58
2024/03/08 02:06:11;;;;;;;31.40;19.60;;;;;;;-5.18;100.00;100804.64;106151;1253;60738;-55
2024/03/08 02:08:39;;;;;;;36.80;20.20;;;;;;;-5.28;100.00;100803.11;106243;1254;74384;-58
2024/03/08 02:11:06;;;;;;;36.00;22.80;;;;;;;-5.36;100.00;100803.90;105942;1257;64984;-56
2024/03/08 02:13:34;;;;;;;33.80;20.70;;;;;;;-5.40;100.00;100808.16;106072;1253;74307;-57
2024/03/08 02:16:01;;;;;;;40.80;21.80;;;;;;;-5.43;100.00;100805.77;106055;1253;61142;-57
2024/03/08 02:18:29;;;;;;;34.60;20.50;;;;;;;-5.43;100.00;100807.69;106156;1258;60615;-56
2024/03/08 02:20:58;;;;;;;36.80;22.20;;;;;;;-5.42;100.00;100809.48;106869;1258;73927;-57
2024/03/08 02:23:26;;;;;;;32.90;18.50;;;;;;;-5.40;100.00;100810.41;106744;1258;69216;-58
2024/03/08 02:25:56;;;;;;;32.10;17.70;;;;;;;-5.40;100.00;100807.46;106002;1258;72474;-56
2024/03/08 02:28:25;;;;;;;27.20;17.30;;;;;;;-5.36;100.00;100805.13;106046;1258;61283;-57
2024/03/08 02:30:55;;;;;;;29.00;17.10;;;;;;;-5.33;100.00;100803.65;107170;1253;60583;-57
2024/03/08 02:33:24;;;;;;;28.10;18.00;;;;;;;-5.28;100.00;100795.76;106349;1259;71740;-58
2024/03/08 02:35:52;;;;;;;29.40;19.40;;;;;;;-5.23;100.00;100795.02;106000;1259;68011;-55
2024/03/08 02:38:20;;;;;;;29.00;18.50;;;;;;;-5.20;100.00;100795.50;106265;1258;70467;-56
2024/03/08 02:40:49;;;;;;;27.10;18.80;;;;;;;-5.16;100.00;100795.94;106136;1266;60601;-56
2024/03/08 02:43:18;;;;;;;29.80;19.70;;;;;;;-5.16;100.00;100794.39;106145;1258;60255;-58
2024/03/08 02:45:45;;;;;;;36.50;20.60;;;;;;;-5.18;100.00;100790.13;106898;1259;73925;-58
2024/03/08 02:48:13;;;;;;;35.90;21.70;;;;;;;-5.20;100.00;100788.52;105996;1259;67583;-57
2024/03/08 02:50:42;;;;;;;36.60;21.50;;;;;;;-5.23;100.00;100789.08;106116;1258;71733;-56
2024/03/08 02:53:11;;;;;;;32.20;20.80;;;;;;;-5.27;100.00;100786.34;106220;1254;60931;-59
2024/03/08 02:55:41;;;;;;;35.50;22.00;;;;;;;-5.29;100.00;100785.75;107681;1258;60585;-56
2024/03/08 02:58:09;;;;;;;40.90;24.70;;;;;;;-5.32;100.00;100784.43;106008;1261;72299;-54
2024/03/08 03:00:38;;;;;;;38.90;22.90;;;;;;;-5.35;100.00;100786.95;106085;1257;65768;-58
2024/03/08 03:03:07;;;;;;;39.70;23.90;;;;;;;-5.37;100.00;100781.83;106469;1257;75524;-55
2024/03/08 03:05:35;;;;;;;37.10;23.00;;;;;;;-5.40;100.00;100782.80;106625;1253;60492;-56
2024/03/08 03:08:08;;;;;;;37.50;23.20;;;;;;;-5.44;100.00;100780.91;105958;1263;60939;-56
2024/03/08 03:10:37;;;;;;;38.30;22.90;;;;;;;-5.48;100.00;100780.61;107147;1258;74127;-55
2024/03/08 03:13:05;;;;;;;37.50;23.40;;;;;;;-5.52;100.00;100776.78;107557;1257;67519;-57
2024/03/08 03:15:33;;;;;;;38.20;23.60;;;;;;;-5.54;100.00;100778.48;106451;1258;72823;-57
2024/03/08 03:18:01;;;;;;;35.90;21.60;;;;;;;-5.60;100.00;100776.17;106491;1256;60608;-57
2024/03/08 03:20:40;;;;;;;34.60;20.80;;;;;;;-5.64;100.00;100776.08;106004;1253;62199;-55
2024/03/08 03:23:09;;;;;;;32.00;19.40;;;;;;;-5.63;100.00;100775.39;106141;1259;74704;-56
2024/03/08 03:25:38;;;;;;;33.50;18.90;;;;;;;-5.61;100.00;100771.79;109052;1254;65946;-56
2024/03/08 03:28:07;;;;;;;36.80;20.00;;;;;;;-5.55;100.00;100771.46;108947;1253;71044;-56
2024/03/08 03:30:35;;;;;;;30.50;19.60;;;;;;;-5.50;100.00;100764.96;108966;1257;59694;-56
2024/03/08 03:33:06;;;;;;;31.20;19.10;;;;;;;-5.46;100.00;100763.34;109095;1253;59367;-56
2024/03/08 03:35:35;;;;;;;33.40;20.50;;;;;;;-5.44;100.00;100763.07;108951;1253;72493;-55
2024/03/08 03:40:36;;;;;;;33.20;21.00;;;;;;;-5.42;100.00;100763.14;108994;1254;73121;-56
2024/03/08 03:43:03;;;;;;;33.40;20.80;;;;;;;-5.39;100.00;100758.69;109040;1254;59329;-58
2024/03/08 03:45:34;;;;;;;32.30;20.40;;;;;;;-5.35;100.00;100761.24;109170;1255;60286;-56
2024/03/08 03:48:06;;;;;;;33.20;21.60;;;;;;;-5.32;100.00;100758.71;108250;1258;73071;-56
2024/03/08 03:50:35;;;;;;;36.10;20.80;;;;;;;-5.32;100.00;100759.41;108961;1253;67068;-56
2024/03/08 03:53:04;;;;;;;30.50;20.50;;;;;;;-5.35;100.00;100756.01;108749;1254;72769;-56
2024/03/08 03:55:32;;;;;;;32.80;20.80;;;;;;;-5.38;100.00;100758.37;109121;1254;60250;-56
2024/03/08 03:58:01;;;;;;;34.30;21.70;;;;;;;-5.41;100.00;100754.23;106829;1254;60382;-56
2024/03/08 04:00:28;;;;;;;30.80;20.40;;;;;;;-5.47;100.00;100757.54;109054;1253;72417;-57
2024/03/08 04:02:58;;;;;;;33.60;21.50;;;;;;;-5.58;100.00;100762.27;106978;1256;65595;-56
2024/03/08 04:05:26;;;;;;;36.60;22.60;;;;;;;-5.69;100.00;100763.98;106213;1259;72730;-56
2024/03/08 04:07:54;;;;;;;35.10;22.40;;;;;;;-5.77;100.00;100763.58;106097;1258;60435;-57
2024/03/08 04:10:22;;;;;;;34.50;22.00;;;;;;;-5.84;100.00;100763.69;106076;1259;60567;-57
2024/03/08 04:12:49;;;;;;;35.60;20.80;;;;;;;-5.86;100.00;100764.48;105988;1258;72699;-58
2024/03/08 04:15:16;;;;;;;33.10;20.90;;;;;;;-5.85;100.00;100761.54;106034;1259;65701;-56
2024/03/08 04:17:45;;;;;;;30.40;20.70;;;;;;;-5.84;100.00;100758.26;106108;1269;72722;-58
2024/03/08 04:20:14;;;;;;;34.90;19.90;;;;;;;-5.82;100.00;100755.87;108590;1253;60446;-56
2024/03/08 04:22:44;;;;;;;30.50;18.90;;;;;;;-5.79;100.00;100753.89;106029;1262;60532;-58
2024/03/08 04:25:12;;;;;;;33.30;18.90;;;;;;;-5.74;100.00;100754.74;106270;1258;71640;-55
2024/03/08 04:27:40;;;;;;;31.80;18.30;;;;;;;-5.70;100.00;100751.20;106043;1259;67044;-55
2024/03/08 04:30:08;;;;;;;28.70;16.80;;;;;;;-5.69;100.00;100752.10;105959;1258;142132;-56
2024/03/08 04:34:34;;;;;;;31.80;19.10;;;;;;;-5.70;100.00;100757.84;102891;1298;603857;-55
2024/03/08 04:37:02;;;;;;;32.90;18.50;;;;;;;-5.73;100.00;100756.36;105252;1276;58846;-55
2024/03/08 04:39:30;;;;;;;38.80;20.10;;;;;;;-5.71;100.00;100755.55;105554;1270;60151;-55
2024/03/08 04:42:03;;;;;;;33.90;19.70;;;;;;;-5.69;100.00;100753.67;105190;1279;72744;-55
2024/03/08 04:44:33;;;;;;;32.10;19.20;;;;;;;-5.67;100.00;100748.67;105242;1271;65835;-56
2024/03/08 04:47:01;;;;;;;32.40;20.90;;;;;;;-5.65;100.00;100746.48;105653;1267;194303;-56
2024/03/08 04:49:28;;;;;;;33.50;21.60;;;;;;;-5.62;100.00;100740.96;105409;1264;59428;-55
2024/03/08 04:51:55;;;;;;;32.50;20.90;;;;;;;-5.60;100.00;100740.68;105464;1267;59784;-55
2024/03/08 04:54:23;;;;;;;35.40;22.90;;;;;;;-5.60;100.00;100736.48;105445;1269;70976;-55
2024/03/08 04:56:51;;;;;;;33.90;22.00;;;;;;;-5.61;100.00;100739.44;105344;1268;67186;-56
2024/03/08 04:59:19;;;;;;;33.00;21.20;;;;;;;-5.63;100.00;100743.21;105359;1269;72688;-55
2024/03/08 05:01:47;;;;;;;33.50;20.90;;;;;;;-5.64;100.00;100741.95;105338;1264;60955;-55
2024/03/08 05:04:15;;;;;;;36.60;22.60;;;;;;;-5.64;100.00;100740.04;105345;1267;59789;-55
2024/03/08 05:06:42;;;;;;;33.90;20.90;;;;;;;-5.60;100.00;100741.71;105496;1264;73159;-55
2024/03/08 05:09:19;;;;;;;37.50;21.10;;;;;;;-5.55;100.00;100737.69;105326;1269;66937;-57
2024/03/08 05:11:46;;;;;;;34.00;20.40;;;;;;;-5.49;100.00;100745.75;105350;1280;73814;-58
2024/03/08 05:14:18;;;;;;;34.80;20.90;;;;;;;-5.43;100.00;100742.48;105591;1264;59858;-55
2024/03/08 05:16:48;;;;;;;30.90;18.60;;;;;;;-5.33;100.00;100745.56;105493;1279;59971;-55
2024/03/08 05:19:17;;;;;;;27.20;16.00;;;;;;;-5.22;100.00;100745.89;105332;1273;73597;-59
2024/03/08 05:21:48;;;;;;;35.20;19.10;;;;;;;-5.10;100.00;100747.83;105524;1270;65832;-57
2024/03/08 05:24:16;;;;;;;30.00;19.20;;;;;;;-4.96;100.00;100745.63;106201;1264;72739;-58
2024/03/08 05:26:44;;;;;;;34.10;19.10;;;;;;;-4.82;100.00;100741.50;106413;1270;60177;-55
2024/03/08 05:29:13;;;;;;;35.70;21.40;;;;;;;-4.67;100.00;100741.08;105436;1271;60111;-57
2024/03/08 05:31:50;;;;;;;36.10;22.60;;;;;;;-4.48;100.00;100746.31;105418;1269;71976;-56
2024/03/08 05:34:19;;;;;;;31.00;20.70;;;;;;;-4.28;100.00;100744.41;105484;1268;65775;-57
2024/03/08 05:36:49;;;;;;;40.90;24.20;;;;;;;-4.09;100.00;100733.89;105644;1266;72726;-56
2024/03/08 05:39:17;;;;;;;44.00;24.00;;;;;;;-3.88;100.00;100733.21;105664;1265;59723;-58
2024/03/08 05:41:45;;;;;;;42.20;23.60;;;;;;;-3.67;100.00;100725.66;105850;1268;60910;-57
2024/03/08 05:44:13;;;;;;;38.60;22.10;;;;;;;-3.47;100.00;100723.49;106734;1251;73454;-57
2024/03/08 05:46:40;;;;;;;42.80;23.50;;;;;;;-3.28;100.00;100720.78;106631;1264;66017;-57
2024/03/08 05:49:09;;;;;;;35.40;21.20;;;;;;;-3.09;100.00;100716.11;106207;1257;72430;-57
2024/03/08 05:51:39;;;;;;;35.50;21.70;;;;;;;-2.91;100.00;100716.67;106134;1258;59772;-56
2024/03/08 05:54:09;;;;;;;41.30;21.30;;;;;;;-2.73;100.00;100715.30;106665;1254;60091;-56
2024/03/08 05:56:38;;;;;;;40.20;22.10;;;;;;;-2.54;100.00;100707.59;106529;1254;71014;-53
2024/03/08 05:59:05;;;;;;;35.80;20.80;;;;;;;-2.36;100.00;100704.45;106267;1257;68101;-54
2024/03/08 06:01:35;;;;;;;38.60;23.70;;;;;;;-2.20;100.00;100701.55;106170;1254;72509;-55
2024/03/08 06:04:03;;;;;;;41.40;24.40;;;;;;;-2.05;100.00;100696.73;106734;1253;60025;-56
2024/03/08 06:06:31;;;;;;;40.90;25.60;;;;;;;-1.89;100.00;100696.13;106199;1254;61089;-56
2024/03/08 06:08:59;;;;;;;40.00;22.10;;;;;;;-1.75;100.00;100697.23;106153;1254;73117;-54
2024/03/08 06:11:28;;;;;;;40.60;23.00;;;;;;;-1.63;100.00;100699.71;106531;1254;65651;-53
2024/03/08 06:13:59;;;;;;;40.20;23.30;;;;;;;-1.54;100.00;100696.67;108271;1254;72639;-54
2024/03/08 06:16:28;;;;;;;36.80;22.20;;;;;;;-1.47;100.00;100695.21;109226;1254;58220;-53
2024/03/08 06:18:57;;;;;;;44.10;22.60;;;;;;;-1.42;100.00;100694.21;109211;1253;60051;-53
2024/03/08 06:21:27;;;;;;;37.90;23.40;;;;;;;-1.38;100.00;100694.47;109201;1252;71719;-53
2024/03/08 06:23:55;;;;;;;38.00;22.20;;;;;;;-1.33;100.00;100695.25;107144;1254;67702;-53
2024/03/08 06:26:23;;;;;;;37.30;21.40;;;;;;;-1.27;100.00;100695.33;109330;1253;71451;-54
2024/03/08 06:28:50;;;;;;;37.40;20.90;;;;;;;-1.22;100.00;100696.29;109236;1253;58108;-54
2024/03/08 06:31:18;;;;;;;30.20;19.30;;;;;;;-1.19;100.00;100691.40;108131;1252;59747;-54
2024/03/08 06:33:45;;;;;;;31.80;20.60;;;;;;;-1.14;100.00;100692.52;106195;1256;73065;-54
2024/03/08 06:36:13;;;;;;;29.10;18.30;;;;;;;-1.07;100.00;100689.79;107739;1254;65790;-54
2024/03/08 06:38:42;;;;;;;25.40;16.30;;;;;;;-1.04;100.00;100682.97;106187;1257;71289;-54
2024/03/08 06:41:15;;;;;;;31.00;18.00;;;;;;;-0.99;100.00;100682.50;106125;1257;60998;-54
2024/03/08 06:43:43;;;;;;;39.20;18.80;;;;;;;-0.92;100.00;100681.55;109213;1254;58759;-54
2024/03/08 06:46:13;;;;;;;27.60;17.70;;;;;;;-0.82;100.00;100680.78;106685;1254;71839;-54
2024/03/08 06:48:41;;;;;;;25.00;16.20;;;;;;;-0.73;100.00;100677.71;106247;1257;66860;-54
2024/03/08 06:51:08;;;;;;;30.50;17.80;;;;;;;-0.66;100.00;100672.52;106093;1259;73582;-54
2024/03/08 06:53:37;;;;;;;29.70;18.40;;;;;;;-0.58;100.00;100669.61;108533;1259;59492;-54
2024/03/08 06:56:04;;;;;;;27.60;18.60;;;;;;;-0.48;100.00;100669.54;107819;1255;60230;-54
2024/03/08 06:58:32;;;;;;;25.80;16.70;;;;;;;-0.40;100.00;100666.10;106129;1254;73043;-54
2024/03/08 07:01:03;;;;;;;25.70;16.30;;;;;;;-0.33;100.00;100661.23;106465;1254;65882;-54
2024/03/08 07:03:32;;;;;;;27.30;16.90;;;;;;;-0.28;100.00;100664.98;106878;1257;70694;-54
2024/03/08 07:06:02;;;;;;;29.70;15.40;;;;;;;-0.28;100.00;100665.00;106252;1254;60245;-54
2024/03/08 07:08:31;;;;;;;24.70;16.50;;;;;;;-0.25;100.00;100662.55;106643;1257;60917;-54
2024/03/08 07:10:58;;;;;;;25.80;16.00;;;;;;;-0.22;100.00;100660.63;106677;1257;71943;-54
2024/03/08 07:13:30;;;;;;;27.40;16.20;;;;;;;-0.17;100.00;100658.21;107529;1254;67374;-54
2024/03/08 07:16:00;;;;;;;27.90;17.80;;;;;;;-0.13;100.00;100660.38;106273;1257;73432;-54
2024/03/08 07:18:29;;;;;;;31.00;16.90;;;;;;;-0.11;100.00;100654.05;106110;1253;60982;-54
2024/03/08 07:20:58;;;;;;;24.50;15.70;;;;;;;-0.08;100.00;100656.02;106179;1253;60194;-54
2024/03/08 07:26:16;;;;;;;24.00;14.80;;;;;;;0.05;100.00;100661.94;106099;1257;67786;-54
2024/03/08 07:28:43;;;;;;;22.30;13.50;;;;;;;0.12;100.00;100657.41;106212;1257;73204;-54
2024/03/08 07:31:25;;;;;;;23.40;13.40;;;;;;;0.23;100.00;100654.67;106143;1257;59676;-54
2024/03/08 07:33:53;;;;;;;23.70;15.00;;;;;;;0.35;100.00;100647.52;107118;1253;59676;-55
2024/03/08 07:36:22;;;;;;;23.10;14.90;;;;;;;0.45;100.00;100645.66;106312;1256;72198;-55
2024/03/08 07:38:49;;;;;;;29.70;15.60;;;;;;;0.57;100.00;100641.85;106610;1254;65794;-55
2024/03/08 07:41:17;;;;;;;28.00;17.00;;;;;;;0.69;100.00;100639.63;106255;1254;74262;-55
2024/03/08 07:43:45;;;;;;;23.80;15.90;;;;;;;0.78;100.00;100639.16;106057;1260;60596;-55
2024/03/08 07:46:13;;;;;;;27.00;16.10;;;;;;;0.87;100.00;100640.60;106208;1254;61032;-55
2024/03/08 07:48:40;;;;;;;27.80;16.20;;;;;;;0.96;100.00;100633.75;106416;1259;73441;-56
2024/03/08 07:51:09;;;;;;;28.90;16.30;;;;;;;1.01;100.00;100632.37;106116;1253;65777;-55
2024/03/08 07:53:38;;;;;;;20.50;14.10;;;;;;;1.06;100.00;100632.03;106234;1254;72043;-55
2024/03/08 07:56:05;;;;;;;21.40;13.80;;;;;;;1.11;100.00;100631.86;106305;1256;61253;-55
2024/03/08 07:58:33;;;;;;;18.00;12.50;;;;;;;1.17;100.00;100627.13;106178;1260;60507;-54
2024/03/08 08:01:02;;;;;;;22.50;12.80;;;;;;;1.21;100.00;100623.59;106252;1254;71867;-54
2024/03/08 08:03:30;;;;;;;20.70;12.60;;;;;;;1.22;100.00;100622.89;106187;1258;66901;-55
2024/03/08 08:05:57;;;;;;;18.30;13.00;;;;;;;1.23;100.00;100619.19;106227;1257;73188;-55
2024/03/08 08:08:26;;;;;;;19.10;12.80;;;;;;;1.24;100.00;100623.44;106320;1254;61789;-55
2024/03/08 08:10:54;;;;;;;19.60;12.50;;;;;;;1.28;100.00;100622.38;106506;1256;60148;-55
2024/03/08 08:13:23;;;;;;;17.70;11.90;;;;;;;1.31;100.00;100623.27;107606;1253;72166;-54
2024/03/08 08:15:50;;;;;;;17.50;9.90;;;;;;;1.37;100.00;100621.17;106560;1251;66894;-55
2024/03/08 08:18:19;;;;;;;17.30;10.80;;;;;;;1.43;100.00;100617.65;106116;1257;72712;-55
2024/03/08 08:20:47;;;;;;;14.60;10.30;;;;;;;1.49;100.00;100610.41;106098;1267;59624;-55
2024/03/08 08:23:15;;;;;;;17.00;11.10;;;;;;;1.56;100.00;100606.70;106207;1253;59944;-55
2024/03/08 08:25:42;;;;;;;16.60;10.10;;;;;;;1.65;100.00;100605.31;107131;1251;71942;-55
2024/03/08 08:28:10;;;;;;;18.40;10.50;;;;;;;1.74;100.00;100604.44;106265;1253;65379;-56
2024/03/08 08:30:37;;;;;;;25.80;11.10;;;;;;;1.82;100.00;100602.31;106437;1257;71438;-56
2024/03/08 08:33:05;;;;;;;15.40;9.40;;;;;;;1.89;100.00;100601.25;106758;1257;59640;-56
2024/03/08 08:35:33;;;;;;;16.40;9.70;;;;;;;1.97;100.00;100597.53;106276;1257;60138;-55
2024/03/08 08:38:00;;;;;;;11.80;7.90;;;;;;;2.05;100.00;100588.50;106321;1258;73144;-55
2024/03/08 08:40:30;;;;;;;12.80;7.10;;;;;;;2.13;100.00;100588.14;106266;1253;65936;-56
2024/03/08 08:42:58;;;;;;;16.30;5.00;;;;;;;2.20;100.00;100586.20;106257;1256;70720;-56
2024/03/08 08:45:25;;;;;;;6.20;3.90;;;;;;;2.24;100.00;100582.98;106315;1251;61003;-55
2024/03/08 08:47:54;;;;;;;6.50;5.10;;;;;;;2.26;100.00;100589.02;109157;1253;59741;-56
2024/03/08 08:50:23;;;;;;;9.10;5.20;;;;;;;2.27;100.00;100588.85;109167;1253;73908;-55
2024/03/08 08:52:51;;;;;;;8.10;4.40;;;;;;;2.27;100.00;100583.36;109058;1253;68260;-56
2024/03/08 08:55:20;;;;;;;7.80;4.70;;;;;;;2.24;100.00;100580.52;109050;1253;71567;-56
2024/03/08 08:57:48;;;;;;;8.60;4.90;;;;;;;2.26;100.00;100574.14;109153;1252;59758;-56
2024/03/08 09:00:18;;;;;;;4.40;2.80;;;;;;;2.32;100.00;100575.55;109092;1253;60869;-56
2024/03/08 09:02:46;;;;;;;4.50;2.70;;;;;;;2.40;100.00;100572.35;106529;1256;74435;-56
2024/03/08 09:05:17;;;;;;;6.70;4.80;;;;;;;2.46;100.00;100571.44;106133;1266;67425;-56
2024/03/08 09:07:44;;;;;;;6.20;4.20;;;;;;;2.53;100.00;100563.27;106237;1256;71452;-56
2024/03/08 09:10:13;;;;;;;6.30;4.50;;;;;;;2.60;100.00;100560.77;109119;1253;58101;-57
2024/03/08 09:12:44;;;;;;;5.70;4.10;;;;;;;2.67;100.00;100558.80;109216;1253;58851;-57
2024/03/08 09:15:12;;;;;;;6.10;4.30;;;;;;;2.74;100.00;100554.16;106468;1253;73931;-56
2024/03/08 09:17:40;;;;;;;8.40;4.80;;;;;;;2.78;100.00;100551.67;109019;1254;67395;-56
2024/03/08 09:20:10;;;;;;;8.30;3.90;;;;;;;2.80;100.00;100545.81;109170;1252;73030;-56
2024/03/08 09:22:37;;;;;;;6.90;4.60;;;;;;;2.83;100.00;100542.95;109088;1253;58395;-56
2024/03/08 09:25:05;;;;;;;6.60;3.10;;;;;;;2.87;100.00;100541.54;109068;1253;62267;-57
2024/03/08 09:27:33;;;;;;;6.50;2.80;;;;;;;2.90;100.00;100538.13;109028;1253;75314;-56
2024/03/08 09:30:06;;;;;;;4.90;2.20;;;;;;;2.93;100.00;100536.36;109229;1253;65652;-56
2024/03/08 09:32:34;;;;;;;7.00;3.70;;;;;;;2.97;100.00;100536.52;109023;1253;71412;-57
2024/03/08 09:35:02;;;;;;;6.20;2.20;;;;;;;2.99;100.00;100532.95;109181;1251;60080;-56
2024/03/08 09:37:30;;;;;;;3.40;2.70;;;;;;;3.01;100.00;100534.36;109297;1253;59301;-56
2024/03/08 09:39:59;;;;;;;6.50;4.80;;;;;;;3.02;100.00;100531.34;109080;1253;71941;-56
2024/03/08 09:42:26;;;;;;;6.20;2.90;;;;;;;3.05;100.00;100530.45;109278;1253;67043;-57
2024/03/08 09:44:54;;;;;;;3.70;2.80;;;;;;;3.10;100.00;100527.58;109164;1253;72735;-56
2024/03/08 09:47:22;;;;;;;3.60;3.20;;;;;;;3.15;100.00;100527.38;109195;1252;59013;-56
2024/03/08 09:49:50;;;;;;;4.70;3.10;;;;;;;3.20;100.00;100525.75;109048;1253;58651;-56
2024/03/08 09:52:17;;;;;;;5.10;3.70;;;;;;;3.28;100.00;100520.91;109076;1253;76804;-57
2024/03/08 09:54:44;;;;;;;12.90;6.10;;;;;;;3.33;100.00;100519.62;106165;1254;66222;-56
2024/03/08 09:57:12;;;;;;;7.40;5.70;;;;;;;3.37;100.00;100515.52;106293;1260;71690;-57
2024/03/08 10:02:09;;;;;;;7.30;4.40;;;;;;;3.45;100.00;100511.55;106218;1256;60760;-58
2024/03/08 10:04:36;;;;;;;6.00;4.10;;;;;;;3.54;100.00;100513.63;106086;1256;74464;-57
2024/03/08 10:07:04;;;;;;;10.80;5.00;;;;;;;3.62;100.00;100511.79;106258;1254;66660;-56
2024/03/08 10:09:31;;;;;;;7.30;4.40;;;;;;;3.66;100.00;100510.85;106212;1257;73247;-55
2024/03/08 10:11:59;;;;;;;7.00;5.20;;;;;;;3.66;100.00;100507.48;106130;1254;60590;-55
2024/03/08 10:14:26;;;;;;;7.10;5.70;;;;;;;3.68;100.00;100510.66;106125;1254;60467;-55
2024/03/08 10:16:54;;;;;;;9.00;4.90;;;;;;;3.70;100.00;100511.36;106230;1256;71717;-55
2024/03/08 10:19:21;;;;;;;8.70;4.60;;;;;;;3.74;100.00;100502.98;106267;1260;66121;-55
2024/03/08 10:21:53;;;;;;;7.20;4.60;;;;;;;3.82;100.00;100499.00;107007;1253;72791;-55
2024/03/08 10:24:20;;;;;;;5.50;4.20;;;;;;;3.91;100.00;100497.50;106520;1254;60387;-55
2024/03/08 10:26:48;;;;;;;8.50;4.10;;;;;;;3.99;100.00;100491.73;106079;1260;60552;-56
2024/03/08 10:29:17;;;;;;;7.30;3.70;;;;;;;4.04;100.00;100484.40;106251;1258;73915;-55
2024/03/08 10:31:45;;;;;;;7.70;4.40;;;;;;;4.09;100.00;100487.37;106794;1253;66161;-55
2024/03/08 10:34:12;;;;;;;8.40;4.20;;;;;;;4.14;100.00;100487.67;108191;1256;70553;-55
2024/03/08 10:36:41;;;;;;;4.50;3.30;;;;;;;4.21;100.00;100484.77;106408;1256;60395;-56
2024/03/08 10:39:28;;;;;;;5.10;3.80;;;;;;;4.27;100.00;100474.38;106262;1257;61313;-56
2024/03/08 10:41:59;;;;;;;6.40;2.50;;;;;;;4.36;100.00;100471.61;106091;1252;72653;-55
2024/03/08 10:44:34;;;;;;;6.00;3.30;;;;;;;4.44;100.00;100463.70;106064;1260;65565;-55
2024/03/08 10:47:05;;;;;;;;;;;;;;;4.51;100.00;100463.61;106509;1256;72690;-55
2024/03/08 10:49:38;;;;;;;4.40;2.90;;;;;;;4.55;100.00;100464.98;106128;1258;60454;-56
2024/03/08 10:52:08;;;;;;;4.00;2.50;;;;;;;4.53;100.00;100461.63;106293;1257;60353;-56
2024/03/08 10:54:40;;;;;;;3.90;2.90;;;;;;;4.54;100.00;100461.25;106087;1257;75482;-56
2024/03/08 10:57:12;;;;;;;4.00;3.10;;;;;;;4.53;100.00;100454.69;106157;1257;65432;-55
2024/03/08 10:59:39;;;;;;;5.30;3.40;;;;;;;4.58;100.00;100456.07;106472;1253;71760;-55
2024/03/08 11:02:08;;;;;;;9.20;4.40;;;;;;;4.62;100.00;100454.94;106224;1253;59762;-55
2024/03/08 11:04:37;;;;;;;5.50;4.20;;;;;;;4.66;100.00;100451.00;109007;1252;58877;-56
2024/03/08 11:07:06;;;;;;;7.10;3.40;;;;;;;4.68;100.00;100450.95;107532;1256;73916;-56
2024/03/08 11:09:38;;;;;;;7.70;3.90;;;;;;;4.68;100.00;100451.13;106207;1253;66037;-56
2024/03/08 11:12:25;;;;;;;4.90;3.30;;;;;;;4.71;100.00;100446.11;106394;1257;72812;-56
2024/03/08 11:14:53;;;;;;;5.80;4.00;;;;;;;4.73;100.00;100441.81;106943;1256;61392;-56